sensor_id;sensor_type;location;lat;lon;timestamp;P1;durP1;ratioP1;P2;durP2;ratioP2
53801;SDS011;39709;53.334;6.534;2023-06-10T00:02:07;6.60;;;3.00;;
53801;SDS011;39709;53.334;6.534;2023-06-10T00:04:33;9.17;;;3.00;;
53801;SDS011;39709;53.334;6.534;2023-06-10T00:07:01;8.82;;;3.10;;
53801;SDS011;39709;53.334;6.534;2023-06-10T00:09:34;9.60;;;3.60;;
53801;SDS011;39709;53.334;6.534;2023-06-10T00:12:06;8.55;;;3.40;;
53801;SDS011;39709;53.334;6.534;2023-06-10T00:14:36;9.40;;;3.28;;
53801;SDS011;39709;53.334;6.534;2023-06-10T00:17:03;7.43;;;2.60;;
53801;SDS011;39709;53.334;6.534;2023-06-10T00:19:29;8.30;;;3.03;;
53801;SDS011;39709;53.334;6.534;2023-06-10T00:21:58;8.70;;;3.17;;
53801;SDS011;39709;53.334;6.534;2023-06-10T00:24:24;8.05;;;3.40;;
53801;SDS011;39709;53.334;6.534;2023-06-10T00:26:50;9.90;;;4.20;;
53801;SDS011;39709;53.334;6.534;2023-06-10T00:29:15;9.40;;;3.85;;
53801;SDS011;39709;53.334;6.534;2023-06-10T00:31:41;8.47;;;3.60;;
53801;SDS011;39709;53.334;6.534;2023-06-10T00:34:07;10.07;;;3.67;;
53801;SDS011;39709;53.334;6.534;2023-06-10T00:36:33;8.45;;;3.45;;
53801;SDS011;39709;53.334;6.534;2023-06-10T00:39:00;10.73;;;3.90;;
53801;SDS011;39709;53.334;6.534;2023-06-10T00:41:27;9.93;;;3.80;;
53801;SDS011;39709;53.334;6.534;2023-06-10T00:43:53;9.55;;;4.00;;
53801;SDS011;39709;53.334;6.534;2023-06-10T00:46:19;8.50;;;3.70;;
53801;SDS011;39709;53.334;6.534;2023-06-10T00:48:46;8.43;;;3.00;;
53801;SDS011;39709;53.334;6.534;2023-06-10T00:51:12;7.95;;;3.05;;
53801;SDS011;39709;53.334;6.534;2023-06-10T00:53:39;11.05;;;3.60;;
53801;SDS011;39709;53.334;6.534;2023-06-10T00:56:06;11.23;;;3.13;;
53801;SDS011;39709;53.334;6.534;2023-06-10T00:58:33;8.02;;;3.28;;
53801;SDS011;39709;53.334;6.534;2023-06-10T01:00:58;9.15;;;3.28;;
53801;SDS011;39709;53.334;6.534;2023-06-10T01:03:25;7.45;;;3.20;;
53801;SDS011;39709;53.334;6.534;2023-06-10T01:05:53;6.47;;;2.73;;
53801;SDS011;39709;53.334;6.534;2023-06-10T01:08:35;6.93;;;2.67;;
53801;SDS011;39709;53.334;6.534;2023-06-10T01:11:08;6.63;;;2.83;;
53801;SDS011;39709;53.334;6.534;2023-06-10T01:13:42;7.80;;;3.08;;
53801;SDS011;39709;53.334;6.534;2023-06-10T01:16:10;7.03;;;3.00;;
53801;SDS011;39709;53.334;6.534;2023-06-10T01:18:36;7.20;;;3.08;;
53801;SDS011;39709;53.334;6.534;2023-06-10T01:21:03;6.75;;;2.85;;
53801;SDS011;39709;53.334;6.534;2023-06-10T01:23:29;7.78;;;2.95;;
53801;SDS011;39709;53.334;6.534;2023-06-10T01:25:59;7.70;;;2.80;;
53801;SDS011;39709;53.334;6.534;2023-06-10T01:28:33;10.63;;;3.05;;
53801;SDS011;39709;53.334;6.534;2023-06-10T01:33:59;6.70;;;2.50;;
53801;SDS011;39709;53.334;6.534;2023-06-10T01:36:27;7.97;;;2.95;;
53801;SDS011;39709;53.334;6.534;2023-06-10T01:38:54;6.80;;;2.43;;
53801;SDS011;39709;53.334;6.534;2023-06-10T01:41:20;10.23;;;2.88;;
53801;SDS011;39709;53.334;6.534;2023-06-10T01:43:47;7.03;;;2.40;;
53801;SDS011;39709;53.334;6.534;2023-06-10T01:46:14;7.55;;;2.83;;
53801;SDS011;39709;53.334;6.534;2023-06-10T01:48:43;6.75;;;2.50;;
53801;SDS011;39709;53.334;6.534;2023-06-10T01:51:09;8.13;;;2.93;;
53801;SDS011;39709;53.334;6.534;2023-06-10T01:53:35;8.77;;;2.90;;
53801;SDS011;39709;53.334;6.534;2023-06-10T01:56:00;8.27;;;2.20;;
53801;SDS011;39709;53.334;6.534;2023-06-10T01:58:26;7.83;;;2.40;;
53801;SDS011;39709;53.334;6.534;2023-06-10T02:00:52;7.47;;;2.42;;
53801;SDS011;39709;53.334;6.534;2023-06-10T02:03:17;7.37;;;2.30;;
53801;SDS011;39709;53.334;6.534;2023-06-10T02:05:43;6.73;;;2.20;;
53801;SDS011;39709;53.334;6.534;2023-06-10T02:08:09;7.17;;;2.60;;
53801;SDS011;39709;53.334;6.534;2023-06-10T02:10:34;9.47;;;2.50;;
53801;SDS011;39709;53.334;6.534;2023-06-10T02:13:01;8.07;;;2.50;;
53801;SDS011;39709;53.334;6.534;2023-06-10T02:15:27;10.60;;;2.90;;
53801;SDS011;39709;53.334;6.534;2023-06-10T02:17:53;6.87;;;2.70;;
53801;SDS011;39709;53.334;6.534;2023-06-10T02:20:19;6.45;;;2.10;;
53801;SDS011;39709;53.334;6.534;2023-06-10T02:22:45;7.35;;;2.60;;
53801;SDS011;39709;53.334;6.534;2023-06-10T02:25:11;9.23;;;2.65;;
53801;SDS011;39709;53.334;6.534;2023-06-10T02:27:37;7.90;;;2.63;;
53801;SDS011;39709;53.334;6.534;2023-06-10T02:30:03;6.20;;;2.78;;
53801;SDS011;39709;53.334;6.534;2023-06-10T02:32:29;8.32;;;2.83;;
53801;SDS011;39709;53.334;6.534;2023-06-10T02:34:55;7.70;;;2.70;;
53801;SDS011;39709;53.334;6.534;2023-06-10T02:37:20;7.07;;;2.67;;
53801;SDS011;39709;53.334;6.534;2023-06-10T02:39:46;6.55;;;2.47;;
53801;SDS011;39709;53.334;6.534;2023-06-10T02:42:12;6.77;;;2.43;;
53801;SDS011;39709;53.334;6.534;2023-06-10T02:44:37;6.40;;;2.50;;
53801;SDS011;39709;53.334;6.534;2023-06-10T02:47:03;7.47;;;2.70;;
53801;SDS011;39709;53.334;6.534;2023-06-10T02:49:29;7.70;;;2.67;;
53801;SDS011;39709;53.334;6.534;2023-06-10T02:51:55;8.05;;;2.42;;
53801;SDS011;39709;53.334;6.534;2023-06-10T02:54:22;7.25;;;2.60;;
53801;SDS011;39709;53.334;6.534;2023-06-10T02:56:48;6.83;;;2.37;;
53801;SDS011;39709;53.334;6.534;2023-06-10T02:59:14;9.13;;;2.88;;
53801;SDS011;39709;53.334;6.534;2023-06-10T03:01:40;7.18;;;2.40;;
53801;SDS011;39709;53.334;6.534;2023-06-10T03:04:06;7.22;;;2.60;;
53801;SDS011;39709;53.334;6.534;2023-06-10T03:06:32;7.20;;;2.67;;
53801;SDS011;39709;53.334;6.534;2023-06-10T03:09:03;7.07;;;2.70;;
53801;SDS011;39709;53.334;6.534;2023-06-10T03:11:29;10.27;;;3.10;;
53801;SDS011;39709;53.334;6.534;2023-06-10T03:13:55;6.57;;;2.33;;
53801;SDS011;39709;53.334;6.534;2023-06-10T03:16:21;10.37;;;3.00;;
53801;SDS011;39709;53.334;6.534;2023-06-10T03:18:48;9.18;;;2.65;;
53801;SDS011;39709;53.334;6.534;2023-06-10T03:21:14;7.25;;;2.45;;
53801;SDS011;39709;53.334;6.534;2023-06-10T03:23:40;7.57;;;2.33;;
53801;SDS011;39709;53.334;6.534;2023-06-10T03:26:05;9.70;;;2.95;;
53801;SDS011;39709;53.334;6.534;2023-06-10T03:28:31;6.70;;;2.23;;
53801;SDS011;39709;53.334;6.534;2023-06-10T03:30:57;6.82;;;2.58;;
53801;SDS011;39709;53.334;6.534;2023-06-10T03:33:23;8.90;;;2.47;;
53801;SDS011;39709;53.334;6.534;2023-06-10T03:35:48;6.28;;;2.60;;
53801;SDS011;39709;53.334;6.534;2023-06-10T03:38:14;7.47;;;2.67;;
53801;SDS011;39709;53.334;6.534;2023-06-10T03:40:40;5.95;;;1.90;;
53801;SDS011;39709;53.334;6.534;2023-06-10T03:43:05;6.57;;;2.17;;
53801;SDS011;39709;53.334;6.534;2023-06-10T03:45:31;5.45;;;1.58;;
53801;SDS011;39709;53.334;6.534;2023-06-10T03:47:57;7.40;;;2.50;;
53801;SDS011;39709;53.334;6.534;2023-06-10T03:50:23;4.65;;;1.50;;
53801;SDS011;39709;53.334;6.534;2023-06-10T03:52:49;6.55;;;1.70;;
53801;SDS011;39709;53.334;6.534;2023-06-10T03:55:16;4.60;;;1.27;;
53801;SDS011;39709;53.334;6.534;2023-06-10T03:57:42;3.55;;;1.17;;
53801;SDS011;39709;53.334;6.534;2023-06-10T04:00:08;5.33;;;1.33;;
53801;SDS011;39709;53.334;6.534;2023-06-10T04:02:38;5.13;;;1.33;;
53801;SDS011;39709;53.334;6.534;2023-06-10T04:05:16;3.47;;;1.02;;
53801;SDS011;39709;53.334;6.534;2023-06-10T04:07:44;4.85;;;1.20;;
53801;SDS011;39709;53.334;6.534;2023-06-10T04:10:12;4.60;;;1.23;;
53801;SDS011;39709;53.334;6.534;2023-06-10T04:12:38;4.50;;;1.45;;
53801;SDS011;39709;53.334;6.534;2023-06-10T04:15:05;4.93;;;1.17;;
53801;SDS011;39709;53.334;6.534;2023-06-10T04:17:31;5.38;;;1.27;;
53801;SDS011;39709;53.334;6.534;2023-06-10T04:19:57;3.97;;;1.27;;
53801;SDS011;39709;53.334;6.534;2023-06-10T04:22:23;2.92;;;0.82;;
53801;SDS011;39709;53.334;6.534;2023-06-10T04:24:49;4.35;;;1.75;;
53801;SDS011;39709;53.334;6.534;2023-06-10T04:27:14;6.20;;;1.10;;
53801;SDS011;39709;53.334;6.534;2023-06-10T04:29:40;5.72;;;1.63;;
53801;SDS011;39709;53.334;6.534;2023-06-10T04:32:06;5.27;;;1.43;;
53801;SDS011;39709;53.334;6.534;2023-06-10T04:34:32;6.10;;;1.45;;
53801;SDS011;39709;53.334;6.534;2023-06-10T04:36:58;5.90;;;1.10;;
53801;SDS011;39709;53.334;6.534;2023-06-10T04:39:24;3.90;;;1.30;;
53801;SDS011;39709;53.334;6.534;2023-06-10T04:41:50;2.92;;;0.70;;
53801;SDS011;39709;53.334;6.534;2023-06-10T04:44:15;2.00;;;0.73;;
53801;SDS011;39709;53.334;6.534;2023-06-10T04:46:41;5.80;;;1.75;;
53801;SDS011;39709;53.334;6.534;2023-06-10T04:49:07;5.47;;;1.73;;
53801;SDS011;39709;53.334;6.534;2023-06-10T04:51:33;6.55;;;1.90;;
53801;SDS011;39709;53.334;6.534;2023-06-10T04:53:59;6.00;;;1.40;;
53801;SDS011;39709;53.334;6.534;2023-06-10T04:56:29;4.10;;;1.30;;
53801;SDS011;39709;53.334;6.534;2023-06-10T04:58:56;3.33;;;1.00;;
53801;SDS011;39709;53.334;6.534;2023-06-10T05:01:22;6.30;;;1.75;;
53801;SDS011;39709;53.334;6.534;2023-06-10T05:03:48;3.47;;;1.25;;
53801;SDS011;39709;53.334;6.534;2023-06-10T05:06:13;7.70;;;1.60;;
53801;SDS011;39709;53.334;6.534;2023-06-10T05:08:39;5.03;;;1.40;;
53801;SDS011;39709;53.334;6.534;2023-06-10T05:11:05;4.67;;;1.37;;
53801;SDS011;39709;53.334;6.534;2023-06-10T05:13:31;7.90;;;2.33;;
53801;SDS011;39709;53.334;6.534;2023-06-10T05:15:57;6.40;;;2.00;;
53801;SDS011;39709;53.334;6.534;2023-06-10T05:18:23;10.40;;;2.15;;
53801;SDS011;39709;53.334;6.534;2023-06-10T05:20:49;5.87;;;1.97;;
53801;SDS011;39709;53.334;6.534;2023-06-10T05:23:14;5.95;;;1.27;;
53801;SDS011;39709;53.334;6.534;2023-06-10T05:25:40;4.43;;;1.90;;
53801;SDS011;39709;53.334;6.534;2023-06-10T05:28:06;4.75;;;1.70;;
53801;SDS011;39709;53.334;6.534;2023-06-10T05:30:35;4.72;;;1.40;;
53801;SDS011;39709;53.334;6.534;2023-06-10T05:33:01;4.23;;;1.30;;
53801;SDS011;39709;53.334;6.534;2023-06-10T05:35:27;4.53;;;1.48;;
53801;SDS011;39709;53.334;6.534;2023-06-10T05:37:53;3.67;;;1.17;;
53801;SDS011;39709;53.334;6.534;2023-06-10T05:40:19;6.27;;;2.30;;
53801;SDS011;39709;53.334;6.534;2023-06-10T05:42:44;6.57;;;2.70;;
53801;SDS011;39709;53.334;6.534;2023-06-10T05:45:10;8.25;;;1.63;;
53801;SDS011;39709;53.334;6.534;2023-06-10T05:47:36;5.43;;;1.42;;
53801;SDS011;39709;53.334;6.534;2023-06-10T05:50:02;4.17;;;1.17;;
53801;SDS011;39709;53.334;6.534;2023-06-10T05:52:31;2.95;;;0.88;;
53801;SDS011;39709;53.334;6.534;2023-06-10T05:54:58;7.15;;;1.95;;
53801;SDS011;39709;53.334;6.534;2023-06-10T05:57:24;10.53;;;2.33;;
53801;SDS011;39709;53.334;6.534;2023-06-10T05:59:51;4.90;;;1.33;;
53801;SDS011;39709;53.334;6.534;2023-06-10T06:02:17;6.75;;;2.20;;
53801;SDS011;39709;53.334;6.534;2023-06-10T06:04:42;6.13;;;1.90;;
53801;SDS011;39709;53.334;6.534;2023-06-10T06:07:08;5.45;;;1.60;;
53801;SDS011;39709;53.334;6.534;2023-06-10T06:09:34;5.80;;;1.35;;
53801;SDS011;39709;53.334;6.534;2023-06-10T06:12:00;5.17;;;1.67;;
53801;SDS011;39709;53.334;6.534;2023-06-10T06:14:26;7.93;;;1.83;;
53801;SDS011;39709;53.334;6.534;2023-06-10T06:16:51;6.90;;;1.88;;
53801;SDS011;39709;53.334;6.534;2023-06-10T06:19:17;3.63;;;1.17;;
53801;SDS011;39709;53.334;6.534;2023-06-10T06:21:43;6.23;;;1.57;;
53801;SDS011;39709;53.334;6.534;2023-06-10T06:24:08;3.95;;;1.30;;
53801;SDS011;39709;53.334;6.534;2023-06-10T06:26:34;6.07;;;1.37;;
53801;SDS011;39709;53.334;6.534;2023-06-10T06:29:00;6.90;;;1.95;;
53801;SDS011;39709;53.334;6.534;2023-06-10T06:31:25;5.63;;;1.93;;
53801;SDS011;39709;53.334;6.534;2023-06-10T06:33:51;4.68;;;1.52;;
53801;SDS011;39709;53.334;6.534;2023-06-10T06:36:17;5.00;;;1.27;;
53801;SDS011;39709;53.334;6.534;2023-06-10T06:38:42;4.38;;;1.60;;
53801;SDS011;39709;53.334;6.534;2023-06-10T06:41:08;7.40;;;1.80;;
53801;SDS011;39709;53.334;6.534;2023-06-10T06:43:34;2.83;;;0.93;;
53801;SDS011;39709;53.334;6.534;2023-06-10T06:45:59;6.95;;;1.63;;
53801;SDS011;39709;53.334;6.534;2023-06-10T06:48:25;4.30;;;1.60;;
53801;SDS011;39709;53.334;6.534;2023-06-10T06:50:51;7.50;;;1.77;;
53801;SDS011;39709;53.334;6.534;2023-06-10T06:53:16;5.83;;;2.00;;
53801;SDS011;39709;53.334;6.534;2023-06-10T06:55:42;4.82;;;1.25;;
53801;SDS011;39709;53.334;6.534;2023-06-10T06:58:08;5.83;;;2.07;;
53801;SDS011;39709;53.334;6.534;2023-06-10T07:00:33;4.95;;;1.48;;
53801;SDS011;39709;53.334;6.534;2023-06-10T07:02:59;7.50;;;1.80;;
53801;SDS011;39709;53.334;6.534;2023-06-10T07:05:25;3.58;;;1.23;;
53801;SDS011;39709;53.334;6.534;2023-06-10T07:07:53;6.28;;;1.75;;
53801;SDS011;39709;53.334;6.534;2023-06-10T07:10:24;6.50;;;1.50;;
53801;SDS011;39709;53.334;6.534;2023-06-10T07:12:50;8.23;;;2.33;;
53801;SDS011;39709;53.334;6.534;2023-06-10T07:15:16;5.10;;;1.27;;
53801;SDS011;39709;53.334;6.534;2023-06-10T07:17:43;5.10;;;1.60;;
53801;SDS011;39709;53.334;6.534;2023-06-10T07:20:09;4.82;;;1.23;;
53801;SDS011;39709;53.334;6.534;2023-06-10T07:22:35;7.53;;;1.80;;
53801;SDS011;39709;53.334;6.534;2023-06-10T07:25:00;5.28;;;1.98;;
53801;SDS011;39709;53.334;6.534;2023-06-10T07:27:26;5.18;;;1.67;;
53801;SDS011;39709;53.334;6.534;2023-06-10T07:29:52;3.23;;;0.87;;
53801;SDS011;39709;53.334;6.534;2023-06-10T07:32:18;4.28;;;1.55;;
53801;SDS011;39709;53.334;6.534;2023-06-10T07:34:45;3.53;;;1.60;;
53801;SDS011;39709;53.334;6.534;2023-06-10T07:37:11;4.35;;;1.20;;
53801;SDS011;39709;53.334;6.534;2023-06-10T07:39:37;5.97;;;1.87;;
53801;SDS011;39709;53.334;6.534;2023-06-10T07:42:02;5.85;;;2.13;;
53801;SDS011;39709;53.334;6.534;2023-06-10T07:44:28;5.80;;;1.93;;
53801;SDS011;39709;53.334;6.534;2023-06-10T07:46:54;5.10;;;1.48;;
53801;SDS011;39709;53.334;6.534;2023-06-10T07:49:20;6.80;;;1.90;;
53801;SDS011;39709;53.334;6.534;2023-06-10T07:51:45;4.47;;;1.55;;
53801;SDS011;39709;53.334;6.534;2023-06-10T07:54:11;6.87;;;1.50;;
53801;SDS011;39709;53.334;6.534;2023-06-10T07:56:37;4.13;;;1.33;;
53801;SDS011;39709;53.334;6.534;2023-06-10T07:59:03;8.00;;;2.33;;
53801;SDS011;39709;53.334;6.534;2023-06-10T08:01:29;5.60;;;1.53;;
53801;SDS011;39709;53.334;6.534;2023-06-10T08:03:55;4.15;;;1.10;;
53801;SDS011;39709;53.334;6.534;2023-06-10T08:06:21;4.90;;;1.52;;
53801;SDS011;39709;53.334;6.534;2023-06-10T08:08:46;8.30;;;2.00;;
53801;SDS011;39709;53.334;6.534;2023-06-10T08:11:12;6.72;;;2.15;;
53801;SDS011;39709;53.334;6.534;2023-06-10T08:13:38;4.33;;;1.53;;
53801;SDS011;39709;53.334;6.534;2023-06-10T08:16:05;8.90;;;1.80;;
53801;SDS011;39709;53.334;6.534;2023-06-10T08:18:30;6.00;;;2.10;;
53801;SDS011;39709;53.334;6.534;2023-06-10T08:20:56;6.78;;;2.05;;
53801;SDS011;39709;53.334;6.534;2023-06-10T08:23:22;9.20;;;2.13;;
53801;SDS011;39709;53.334;6.534;2023-06-10T08:25:48;5.60;;;1.77;;
53801;SDS011;39709;53.334;6.534;2023-06-10T08:28:14;4.63;;;1.47;;
53801;SDS011;39709;53.334;6.534;2023-06-10T08:30:40;3.03;;;1.02;;
53801;SDS011;39709;53.334;6.534;2023-06-10T08:33:05;5.60;;;1.67;;
53801;SDS011;39709;53.334;6.534;2023-06-10T08:35:31;6.80;;;1.80;;
53801;SDS011;39709;53.334;6.534;2023-06-10T08:37:57;4.90;;;1.63;;
53801;SDS011;39709;53.334;6.534;2023-06-10T08:40:22;4.97;;;1.50;;
53801;SDS011;39709;53.334;6.534;2023-06-10T08:42:52;6.57;;;2.08;;
53801;SDS011;39709;53.334;6.534;2023-06-10T08:45:38;7.32;;;2.42;;
53801;SDS011;39709;53.334;6.534;2023-06-10T08:48:07;8.50;;;2.50;;
53801;SDS011;39709;53.334;6.534;2023-06-10T08:50:36;9.43;;;1.93;;
53801;SDS011;39709;53.334;6.534;2023-06-10T08:53:04;5.95;;;1.70;;
53801;SDS011;39709;53.334;6.534;2023-06-10T08:55:32;5.00;;;1.75;;
53801;SDS011;39709;53.334;6.534;2023-06-10T08:58:01;4.45;;;1.58;;
53801;SDS011;39709;53.334;6.534;2023-06-10T09:00:28;8.20;;;1.80;;
53801;SDS011;39709;53.334;6.534;2023-06-10T09:02:55;7.70;;;2.40;;
53801;SDS011;39709;53.334;6.534;2023-06-10T09:05:21;6.82;;;1.80;;
53801;SDS011;39709;53.334;6.534;2023-06-10T09:07:48;4.88;;;1.55;;
53801;SDS011;39709;53.334;6.534;2023-06-10T09:10:14;6.78;;;2.15;;
53801;SDS011;39709;53.334;6.534;2023-06-10T09:12:40;5.32;;;1.90;;
53801;SDS011;39709;53.334;6.534;2023-06-10T09:15:06;3.97;;;1.23;;
53801;SDS011;39709;53.334;6.534;2023-06-10T09:17:33;4.30;;;1.38;;
53801;SDS011;39709;53.334;6.534;2023-06-10T09:20:01;6.38;;;1.67;;
53801;SDS011;39709;53.334;6.534;2023-06-10T09:22:27;5.25;;;1.60;;
53801;SDS011;39709;53.334;6.534;2023-06-10T09:25:03;7.63;;;1.60;;
53801;SDS011;39709;53.334;6.534;2023-06-10T09:27:30;6.93;;;2.22;;
53801;SDS011;39709;53.334;6.534;2023-06-10T09:29:59;7.82;;;1.67;;
53801;SDS011;39709;53.334;6.534;2023-06-10T09:32:25;6.93;;;1.17;;
53801;SDS011;39709;53.334;6.534;2023-06-10T09:34:52;11.80;;;1.73;;
53801;SDS011;39709;53.334;6.534;2023-06-10T09:37:22;5.55;;;1.98;;
53801;SDS011;39709;53.334;6.534;2023-06-10T09:40:02;6.50;;;1.80;;
53801;SDS011;39709;53.334;6.534;2023-06-10T09:42:32;4.30;;;1.80;;
53801;SDS011;39709;53.334;6.534;2023-06-10T09:44:59;7.47;;;1.90;;
53801;SDS011;39709;53.334;6.534;2023-06-10T09:47:25;3.90;;;1.40;;
53801;SDS011;39709;53.334;6.534;2023-06-10T09:49:51;5.00;;;1.53;;
53801;SDS011;39709;53.334;6.534;2023-06-10T09:52:23;4.47;;;1.48;;
53801;SDS011;39709;53.334;6.534;2023-06-10T09:54:51;6.07;;;2.25;;
53801;SDS011;39709;53.334;6.534;2023-06-10T09:57:17;5.30;;;2.20;;
53801;SDS011;39709;53.334;6.534;2023-06-10T09:59:44;5.63;;;2.47;;
53801;SDS011;39709;53.334;6.534;2023-06-10T10:02:17;7.40;;;2.40;;
53801;SDS011;39709;53.334;6.534;2023-06-10T10:04:43;6.00;;;2.13;;
53801;SDS011;39709;53.334;6.534;2023-06-10T10:07:10;5.90;;;1.80;;
53801;SDS011;39709;53.334;6.534;2023-06-10T10:09:40;7.50;;;2.40;;
53801;SDS011;39709;53.334;6.534;2023-06-10T10:12:10;4.68;;;1.85;;
53801;SDS011;39709;53.334;6.534;2023-06-10T10:14:38;4.87;;;2.00;;
53801;SDS011;39709;53.334;6.534;2023-06-10T10:17:07;6.82;;;1.77;;
53801;SDS011;39709;53.334;6.534;2023-06-10T10:19:36;5.45;;;2.25;;
53801;SDS011;39709;53.334;6.534;2023-06-10T10:22:10;6.70;;;1.90;;
53801;SDS011;39709;53.334;6.534;2023-06-10T10:24:49;5.25;;;2.30;;
53801;SDS011;39709;53.334;6.534;2023-06-10T10:30:20;7.97;;;2.90;;
53801;SDS011;39709;53.334;6.534;2023-06-10T10:35:21;5.13;;;2.00;;
53801;SDS011;39709;53.334;6.534;2023-06-10T10:37:53;7.03;;;2.45;;
53801;SDS011;39709;53.334;6.534;2023-06-10T10:40:22;9.17;;;2.63;;
53801;SDS011;39709;53.334;6.534;2023-06-10T10:42:49;5.30;;;2.42;;
53801;SDS011;39709;53.334;6.534;2023-06-10T10:45:16;6.90;;;2.42;;
53801;SDS011;39709;53.334;6.534;2023-06-10T10:47:43;6.82;;;2.30;;
53801;SDS011;39709;53.334;6.534;2023-06-10T10:50:18;5.97;;;2.55;;
53801;SDS011;39709;53.334;6.534;2023-06-10T10:52:54;6.80;;;2.53;;
53801;SDS011;39709;53.334;6.534;2023-06-10T10:55:25;9.40;;;3.05;;
53801;SDS011;39709;53.334;6.534;2023-06-10T10:57:58;6.80;;;2.40;;
53801;SDS011;39709;53.334;6.534;2023-06-10T11:02:54;6.13;;;1.92;;
53801;SDS011;39709;53.334;6.534;2023-06-10T11:05:35;6.10;;;2.60;;
53801;SDS011;39709;53.334;6.534;2023-06-10T11:08:02;6.63;;;2.60;;
53801;SDS011;39709;53.334;6.534;2023-06-10T11:10:32;8.18;;;2.40;;
53801;SDS011;39709;53.334;6.534;2023-06-10T11:13:21;5.18;;;2.08;;
53801;SDS011;39709;53.334;6.534;2023-06-10T11:15:48;7.00;;;2.63;;
53801;SDS011;39709;53.334;6.534;2023-06-10T11:20:45;6.97;;;2.53;;
53801;SDS011;39709;53.334;6.534;2023-06-10T11:26:17;8.45;;;3.42;;
53801;SDS011;39709;53.334;6.534;2023-06-10T11:31:18;8.90;;;3.70;;
53801;SDS011;39709;53.334;6.534;2023-06-10T11:33:46;7.03;;;3.28;;
53801;SDS011;39709;53.334;6.534;2023-06-10T11:36:13;6.05;;;2.42;;
53801;SDS011;39709;53.334;6.534;2023-06-10T11:38:40;9.43;;;4.20;;
53801;SDS011;39709;53.334;6.534;2023-06-10T11:41:06;8.52;;;3.80;;
53801;SDS011;39709;53.334;6.534;2023-06-10T11:43:32;9.37;;;3.97;;
53801;SDS011;39709;53.334;6.534;2023-06-10T11:45:59;9.55;;;4.43;;
53801;SDS011;39709;53.334;6.534;2023-06-10T11:48:25;5.85;;;2.40;;
53801;SDS011;39709;53.334;6.534;2023-06-10T11:50:53;7.68;;;2.53;;
53801;SDS011;39709;53.334;6.534;2023-06-10T11:53:19;9.57;;;4.80;;
53801;SDS011;39709;53.334;6.534;2023-06-10T11:55:46;10.05;;;4.80;;
53801;SDS011;39709;53.334;6.534;2023-06-10T11:58:16;8.30;;;3.50;;
53801;SDS011;39709;53.334;6.534;2023-06-10T12:00:50;12.40;;;4.15;;
53801;SDS011;39709;53.334;6.534;2023-06-10T12:03:18;11.10;;;4.27;;
53801;SDS011;39709;53.334;6.534;2023-06-10T12:05:57;10.13;;;3.47;;
53801;SDS011;39709;53.334;6.534;2023-06-10T12:08:23;7.80;;;3.53;;
53801;SDS011;39709;53.334;6.534;2023-06-10T12:10:49;8.65;;;3.80;;
53801;SDS011;39709;53.334;6.534;2023-06-10T12:13:16;7.50;;;3.33;;
53801;SDS011;39709;53.334;6.534;2023-06-10T12:15:44;9.43;;;4.70;;
53801;SDS011;39709;53.334;6.534;2023-06-10T12:18:21;9.80;;;3.75;;
53801;SDS011;39709;53.334;6.534;2023-06-10T12:20:48;7.78;;;3.10;;
53801;SDS011;39709;53.334;6.534;2023-06-10T12:23:15;7.30;;;3.00;;
53801;SDS011;39709;53.334;6.534;2023-06-10T12:25:55;7.57;;;3.17;;
53801;SDS011;39709;53.334;6.534;2023-06-10T12:28:24;9.70;;;3.70;;
53801;SDS011;39709;53.334;6.534;2023-06-10T12:30:51;9.63;;;4.10;;
53801;SDS011;39709;53.334;6.534;2023-06-10T12:33:30;4.95;;;2.13;;
53801;SDS011;39709;53.334;6.534;2023-06-10T12:35:56;5.73;;;2.43;;
53801;SDS011;39709;53.334;6.534;2023-06-10T12:38:25;8.18;;;3.40;;
53801;SDS011;39709;53.334;6.534;2023-06-10T12:40:52;7.20;;;2.92;;
53801;SDS011;39709;53.334;6.534;2023-06-10T12:43:24;8.30;;;2.70;;
53801;SDS011;39709;53.334;6.534;2023-06-10T12:45:50;9.02;;;2.90;;
53801;SDS011;39709;53.334;6.534;2023-06-10T12:48:20;8.13;;;2.40;;
53801;SDS011;39709;53.334;6.534;2023-06-10T12:50:54;9.73;;;2.55;;
53801;SDS011;39709;53.334;6.534;2023-06-10T12:53:21;6.17;;;2.33;;
53801;SDS011;39709;53.334;6.534;2023-06-10T12:55:51;8.75;;;2.35;;
53801;SDS011;39709;53.334;6.534;2023-06-10T12:58:19;10.85;;;3.08;;
53801;SDS011;39709;53.334;6.534;2023-06-10T13:00:45;8.63;;;3.17;;
53801;SDS011;39709;53.334;6.534;2023-06-10T13:03:11;9.37;;;2.87;;
53801;SDS011;39709;53.334;6.534;2023-06-10T13:05:37;8.18;;;2.70;;
53801;SDS011;39709;53.334;6.534;2023-06-10T13:08:04;9.10;;;2.92;;
53801;SDS011;39709;53.334;6.534;2023-06-10T13:10:31;10.70;;;2.53;;
53801;SDS011;39709;53.334;6.534;2023-06-10T13:12:57;8.40;;;2.90;;
53801;SDS011;39709;53.334;6.534;2023-06-10T13:15:22;8.15;;;2.60;;
53801;SDS011;39709;53.334;6.534;2023-06-10T13:17:48;8.27;;;2.63;;
53801;SDS011;39709;53.334;6.534;2023-06-10T13:20:16;6.53;;;2.80;;
53801;SDS011;39709;53.334;6.534;2023-06-10T13:22:42;7.78;;;2.60;;
53801;SDS011;39709;53.334;6.534;2023-06-10T13:25:08;8.50;;;3.00;;
53801;SDS011;39709;53.334;6.534;2023-06-10T13:27:34;10.77;;;3.35;;
53801;SDS011;39709;53.334;6.534;2023-06-10T13:30:03;8.18;;;2.08;;
53801;SDS011;39709;53.334;6.534;2023-06-10T13:32:32;8.38;;;2.85;;
53801;SDS011;39709;53.334;6.534;2023-06-10T13:34:58;7.13;;;3.07;;
53801;SDS011;39709;53.334;6.534;2023-06-10T13:37:24;8.43;;;2.13;;
53801;SDS011;39709;53.334;6.534;2023-06-10T13:39:50;9.90;;;2.60;;
53801;SDS011;39709;53.334;6.534;2023-06-10T13:42:19;8.65;;;3.17;;
53801;SDS011;39709;53.334;6.534;2023-06-10T13:44:45;7.38;;;3.13;;
53801;SDS011;39709;53.334;6.534;2023-06-10T13:47:12;9.60;;;2.67;;
53801;SDS011;39709;53.334;6.534;2023-06-10T13:49:38;10.30;;;3.40;;
53801;SDS011;39709;53.334;6.534;2023-06-10T13:52:05;9.00;;;2.33;;
53801;SDS011;39709;53.334;6.534;2023-06-10T13:54:32;5.00;;;1.80;;
53801;SDS011;39709;53.334;6.534;2023-06-10T13:56:58;5.32;;;2.17;;
53801;SDS011;39709;53.334;6.534;2023-06-10T13:59:25;8.30;;;2.20;;
53801;SDS011;39709;53.334;6.534;2023-06-10T14:01:51;7.67;;;2.67;;
53801;SDS011;39709;53.334;6.534;2023-06-10T14:04:16;7.82;;;2.20;;
53801;SDS011;39709;53.334;6.534;2023-06-10T14:06:42;6.83;;;2.30;;
53801;SDS011;39709;53.334;6.534;2023-06-10T14:09:08;7.13;;;2.30;;
53801;SDS011;39709;53.334;6.534;2023-06-10T14:11:34;9.70;;;3.17;;
53801;SDS011;39709;53.334;6.534;2023-06-10T14:14:00;6.27;;;2.40;;
53801;SDS011;39709;53.334;6.534;2023-06-10T14:16:26;9.18;;;3.03;;
53801;SDS011;39709;53.334;6.534;2023-06-10T14:18:52;8.10;;;2.13;;
53801;SDS011;39709;53.334;6.534;2023-06-10T14:21:17;7.33;;;2.40;;
53801;SDS011;39709;53.334;6.534;2023-06-10T14:23:43;5.88;;;1.90;;
53801;SDS011;39709;53.334;6.534;2023-06-10T14:26:09;10.80;;;2.50;;
53801;SDS011;39709;53.334;6.534;2023-06-10T14:28:35;8.77;;;2.42;;
53801;SDS011;39709;53.334;6.534;2023-06-10T14:31:01;7.53;;;2.37;;
53801;SDS011;39709;53.334;6.534;2023-06-10T14:33:26;8.80;;;2.70;;
53801;SDS011;39709;53.334;6.534;2023-06-10T14:35:52;6.93;;;2.88;;
53801;SDS011;39709;53.334;6.534;2023-06-10T14:38:18;11.90;;;3.00;;
53801;SDS011;39709;53.334;6.534;2023-06-10T14:40:44;8.80;;;2.53;;
53801;SDS011;39709;53.334;6.534;2023-06-10T14:43:09;12.20;;;2.37;;
53801;SDS011;39709;53.334;6.534;2023-06-10T14:45:38;11.67;;;2.53;;
53801;SDS011;39709;53.334;6.534;2023-06-10T14:48:05;7.33;;;1.97;;
53801;SDS011;39709;53.334;6.534;2023-06-10T14:50:32;10.38;;;2.22;;
53801;SDS011;39709;53.334;6.534;2023-06-10T14:52:59;7.85;;;2.25;;
53801;SDS011;39709;53.334;6.534;2023-06-10T14:55:25;8.67;;;2.77;;
53801;SDS011;39709;53.334;6.534;2023-06-10T14:57:51;6.40;;;2.25;;
53801;SDS011;39709;53.334;6.534;2023-06-10T15:00:16;9.80;;;2.40;;
53801;SDS011;39709;53.334;6.534;2023-06-10T15:02:47;7.25;;;2.40;;
53801;SDS011;39709;53.334;6.534;2023-06-10T15:05:13;5.65;;;1.65;;
53801;SDS011;39709;53.334;6.534;2023-06-10T15:07:40;9.18;;;2.22;;